Time;durP1;ratioP1;P1;durP2;ratioP2;P2;SDS_P1;SDS_P2;PMS_P1;PMS_P2;Temp;Humidity;BMP_temperature;BMP_pressure;BME280_temperature;BME280_humidity;BME280_pressure;Samples;Min_cycle;Max_cycle;Signal;HPM_P1;HPM_P2
2021/05/23 00:00:16;;;;;;;;;;;;;;;8.93;85.61;98130.97;5050654;28;19905;-67
2021/05/23 00:02:42;;;;;;;;;;;;;;;8.94;85.90;98132.69;5055983;28;19946;-67
2021/05/23 00:05:09;;;;;;;;;;;;;;;8.97;85.48;98132.63;5063813;28;19911;-65
2021/05/23 00:07:37;;;;;;;;;;;;;;;8.94;84.79;98127.44;5061727;28;20192;-65
2021/05/23 00:10:04;;;;;;;;;;;;;;;8.94;84.89;98128.31;5055052;28;19909;-65
2021/05/23 00:12:29;;;;;;;;;;;;;;;8.98;84.97;98123.88;5063662;28;20192;-65
2021/05/23 00:14:54;;;;;;;;;;;;;;;8.98;84.41;98123.88;5061871;28;19919;-65
2021/05/23 00:17:20;;;;;;;;;;;;;;;8.95;84.82;98129.19;5063365;28;19936;-65
2021/05/23 00:19:45;;;;;;;;;;;;;;;8.97;84.93;98130.88;5061181;28;19983;-65
2021/05/23 00:22:10;;;;;;;;;;;;;;;9.01;85.08;98134.31;5050512;28;19909;-65
2021/05/23 00:24:36;;;;;;;;;;;;;;;8.95;84.73;98129.19;5048120;28;19905;-65
2021/05/23 00:27:01;;;;;;;;;;;;;;;8.93;84.60;98137.09;5050098;28;19905;-65
2021/05/23 00:29:26;;;;;;;;;;;;;;;8.93;84.21;98138.84;5052232;28;20108;-65
2021/05/23 00:31:53;;;;;;;;;;;;;;;8.83;85.31;98144.28;5061705;28;19912;-65
2021/05/23 00:34:18;;;;;;;;;;;;;;;8.88;84.23;98143.31;5060057;28;19979;-65
2021/05/23 00:36:43;;;;;;;;;;;;;;;8.90;85.02;98152.03;5063207;28;19905;-65
2021/05/23 00:39:09;;;;;;;;;;;;;;;8.93;84.59;98151.97;5064623;28;19916;-65
2021/05/23 00:41:34;;;;;;;;;;;;;;;8.98;84.60;98150.13;5047796;28;19904;-65
2021/05/23 00:43:59;;;;;;;;;;;;;;;8.97;84.01;98156.25;5047485;28;19927;-65
2021/05/23 00:46:25;;;;;;;;;;;;;;;9.01;83.76;98144.81;5046284;28;19912;-65
2021/05/23 00:48:50;;;;;;;;;;;;;;;8.94;83.61;98164.19;5049666;28;20166;-65
2021/05/23 00:51:15;;;;;;;;;;;;;;;8.76;83.77;98154.94;5047313;28;19933;-65
2021/05/23 00:53:40;;;;;;;;;;;;;;;8.70;84.55;98153.28;5048435;28;20226;-65
2021/05/23 00:56:06;;;;;;;;;;;;;;;8.53;83.53;98147.53;5055638;28;19927;-65
2021/05/23 00:58:31;;;;;;;;;;;;;;;8.51;83.35;98154.53;5049411;28;19980;-65
2021/05/23 01:00:56;;;;;;;;;;;;;;;8.46;84.26;98140.66;5047149;28;19976;-65
2021/05/23 01:03:28;;;;;;;;;;;;;;;8.45;84.69;98141.53;5047151;28;19905;-65
2021/05/23 01:06:04;;;;;;;;;;;;;;;8.40;83.68;98135.53;5049226;28;19904;-65
2021/05/23 01:08:30;;;;;;;;;;;;;;;8.32;84.29;98142.66;5049387;28;19911;-67
2021/05/23 01:11:01;;;;;;;;;;;;;;;8.21;84.58;98144.59;5058515;28;19932;-67
2021/05/23 01:13:38;;;;;;;;;;;;;;;8.14;83.85;98142.09;5061718;28;19972;-67
2021/05/23 01:16:07;;;;;;;;;;;;;;;8.12;84.70;98150.00;5041722;28;19920;-67
2021/05/23 01:18:51;;;;;;;;;;;;;;;8.20;84.12;98148.09;5049086;28;19915;-67
2021/05/23 01:21:18;;;;;;;;;;;;;;;8.15;84.41;98165.66;5059461;28;19905;-67
2021/05/23 01:23:50;;;;;;;;;;;;;;;8.10;84.23;98159.63;5063927;28;20099;-67
2021/05/23 01:26:16;;;;;;;;;;;;;;;8.08;84.53;98164.06;5060672;28;19939;-67
2021/05/23 01:28:54;;;;;;;;;;;;;;;7.94;84.25;98166.03;5062256;28;19911;-67
2021/05/23 01:31:21;;;;;;;;;;;;;;;7.98;84.13;98164.22;5049717;28;19984;-67
2021/05/23 01:33:51;;;;;;;;;;;;;;;7.95;84.49;98162.53;5046566;28;19912;-67
2021/05/23 01:36:16;;;;;;;;;;;;;;;7.98;83.68;98157.22;5048819;28;20023;-67
2021/05/23 01:38:42;;;;;;;;;;;;;;;7.97;83.10;98160.72;5046371;28;19913;-67
2021/05/23 01:41:09;;;;;;;;;;;;;;;7.85;83.68;98171.41;5060653;28;19905;-67
2021/05/23 01:43:35;;;;;;;;;;;;;;;7.82;83.89;98171.44;5063538;28;19905;-67
2021/05/23 01:46:01;;;;;;;;;;;;;;;7.89;84.40;98178.34;5063524;28;20207;-67
2021/05/23 01:48:26;;;;;;;;;;;;;;;7.83;83.46;98186.31;5061845;28;19905;-67
2021/05/23 01:50:52;;;;;;;;;;;;;;;7.76;83.57;98187.28;5052249;28;19955;-67
2021/05/23 01:53:17;;;;;;;;;;;;;;;7.70;84.04;98197.84;5046148;28;19905;-65
2021/05/23 01:55:42;;;;;;;;;;;;;;;7.68;84.50;98197.00;5046179;28;19905;-67
2021/05/23 01:58:08;;;;;;;;;;;;;;;7.73;84.24;98196.94;5055403;28;19909;-65
2021/05/23 02:00:38;;;;;;;;;;;;;;;7.79;84.15;98197.69;5060320;28;19913;-65
2021/05/23 02:03:04;;;;;;;;;;;;;;;7.67;84.10;98197.03;5063113;28;19976;-67
2021/05/23 02:05:30;;;;;;;;;;;;;;;7.57;83.98;98198.94;5053860;28;20103;-67
2021/05/23 02:07:55;;;;;;;;;;;;;;;7.63;83.70;98205.81;5045909;28;19905;-67
2021/05/23 02:10:21;;;;;;;;;;;;;;;7.65;85.20;98204.91;5056196;28;20196;-67
2021/05/23 02:12:46;;;;;;;;;;;;;;;7.79;84.07;98200.31;5059878;28;20192;-67
2021/05/23 02:15:13;;;;;;;;;;;;;;;7.76;84.75;98212.59;5064478;28;19919;-67
2021/05/23 02:17:39;;;;;;;;;;;;;;;7.89;83.95;98215.03;5062765;28;19913;-67
2021/05/23 02:20:06;;;;;;;;;;;;;;;7.95;83.73;98220.19;5056720;28;20095;-67
2021/05/23 02:22:36;;;;;;;;;;;;;;;8.06;83.79;98215.63;5044422;28;19963;-67
2021/05/23 02:25:01;;;;;;;;;;;;;;;8.05;83.74;98224.38;5045102;28;19940;-67
2021/05/23 02:27:26;;;;;;;;;;;;;;;8.23;83.50;98221.47;5044471;28;19905;-67
2021/05/23 02:29:52;;;;;;;;;;;;;;;8.25;83.65;98229.31;5050001;28;20221;-67
2021/05/23 02:32:17;;;;;;;;;;;;;;;8.34;83.20;98231.78;5064332;28;19911;-67
2021/05/23 02:34:46;;;;;;;;;;;;;;;8.30;83.80;98233.63;5064348;28;19979;-67
2021/05/23 02:37:11;;;;;;;;;;;;;;;8.43;83.73;98235.13;5056052;28;19912;-67
2021/05/23 02:39:37;;;;;;;;;;;;;;;8.49;83.17;98232.38;5060997;28;19909;-67
2021/05/23 02:42:02;;;;;;;;;;;;;;;8.52;83.28;98229.69;5056637;28;19944;-67
2021/05/23 02:44:28;;;;;;;;;;;;;;;8.58;83.60;98229.59;5058537;28;19904;-67
2021/05/23 02:46:53;;;;;;;;;;;;;;;8.56;83.06;98226.16;5046842;28;19911;-67
2021/05/23 02:49:18;;;;;;;;;;;;;;;8.51;83.24;98238.47;5046558;28;19905;-67
2021/05/23 02:51:43;;;;;;;;;;;;;;;8.52;82.73;98234.94;5046744;28;19912;-67
2021/05/23 02:54:09;;;;;;;;;;;;;;;8.56;82.42;98236.66;5047611;28;19912;-67
2021/05/23 02:56:34;;;;;;;;;;;;;;;8.43;83.35;98240.38;5062444;28;19912;-67
2021/05/23 02:59:00;;;;;;;;;;;;;;;8.35;84.08;98246.63;5056545;28;19909;-67
2021/05/23 03:01:25;;;;;;;;;;;;;;;8.33;83.59;98244.03;5052778;28;19947;-67
2021/05/23 03:03:50;;;;;;;;;;;;;;;8.30;82.87;98249.34;5046345;28;19911;-67
2021/05/23 03:06:16;;;;;;;;;;;;;;;8.34;83.40;98251.03;5046403;28;20096;-67
2021/05/23 03:08:41;;;;;;;;;;;;;;;8.23;83.46;98247.69;5044059;28;19951;-67
2021/05/23 03:11:06;;;;;;;;;;;;;;;8.19;82.98;98240.75;5061294;28;20014;-67
2021/05/23 03:13:31;;;;;;;;;;;;;;;8.14;83.50;98247.78;5063724;28;19916;-67
2021/05/23 03:15:57;;;;;;;;;;;;;;;8.18;83.99;98249.50;5063944;28;19981;-67
2021/05/23 03:18:22;;;;;;;;;;;;;;;8.18;83.39;98254.75;5060778;28;19916;-67
2021/05/23 03:20:47;;;;;;;;;;;;;;;8.19;83.46;98258.22;5059243;28;20203;-67
2021/05/23 03:23:13;;;;;;;;;;;;;;;8.18;83.92;98260.00;5062359;28;19904;-67
2021/05/23 03:25:38;;;;;;;;;;;;;;;8.20;84.61;98263.44;5050606;28;19943;-67
2021/05/23 03:28:04;;;;;;;;;;;;;;;8.19;84.55;98259.09;5043878;28;20000;-67
2021/05/23 03:30:31;;;;;;;;;;;;;;;8.24;84.79;98270.41;5046695;28;19975;-67
2021/05/23 03:32:56;;;;;;;;;;;;;;;8.24;84.23;98270.41;5047637;28;19988;-67
2021/05/23 03:35:21;;;;;;;;;;;;;;;8.23;84.51;98267.81;5047618;28;19905;-67
2021/05/23 03:37:47;;;;;;;;;;;;;;;8.30;84.69;98264.19;5048682;28;19908;-67
2021/05/23 03:40:15;;;;;;;;;;;;;;;8.34;83.98;98269.38;5052140;28;19921;-67
2021/05/23 03:42:40;;;;;;;;;;;;;;;8.37;83.92;98271.94;5049381;28;20149;-67
2021/05/23 03:45:06;;;;;;;;;;;;;;;8.32;83.43;98278.13;5049787;28;19905;-67
2021/05/23 03:47:31;;;;;;;;;;;;;;;8.31;83.22;98293.03;5049778;28;19912;-67
2021/05/23 03:49:57;;;;;;;;;;;;;;;8.19;84.14;98289.66;5051859;28;20207;-67
2021/05/23 03:52:22;;;;;;;;;;;;;;;8.22;83.20;98297.53;5048445;28;19920;-67
2021/05/23 03:54:47;;;;;;;;;;;;;;;8.22;83.62;98303.63;5047288;28;19928;-67
2021/05/23 03:57:13;;;;;;;;;;;;;;;8.18;83.94;98301.94;5047289;28;19905;-67
2021/05/23 03:59:38;;;;;;;;;;;;;;;8.26;84.12;98307.94;5054265;28;20152;-67
2021/05/23 04:02:03;;;;;;;;;;;;;;;8.21;83.97;98301.88;5067066;28;19905;-67
2021/05/23 04:04:45;;;;;;;;;;;;;;;8.16;83.85;98308.06;5066960;28;19932;-67
2021/05/23 04:07:11;;;;;;;;;;;;;;;8.17;83.88;98312.44;5065175;28;19936;-67
2021/05/23 04:09:36;;;;;;;;;;;;;;;8.23;84.29;98320.25;5059680;28;20243;-67
2021/05/23 04:12:01;;;;;;;;;;;;;;;8.38;84.35;98331.34;5051618;28;20183;-67
2021/05/23 04:14:27;;;;;;;;;;;;;;;8.43;83.61;98339.16;5047889;28;19920;-65
2021/05/23 04:16:52;;;;;;;;;;;;;;;8.46;82.86;98333.88;5046840;28;19905;-65
2021/05/23 04:19:17;;;;;;;;;;;;;;;8.63;83.43;98337.94;5052582;28;19995;-67
2021/05/23 04:21:43;;;;;;;;;;;;;;;8.61;82.70;98344.97;5049079;28;19912;-67
2021/05/23 04:24:08;;;;;;;;;;;;;;;8.67;82.83;98344.88;5048585;28;19905;-67
2021/05/23 04:26:33;;;;;;;;;;;;;;;8.82;82.53;98352.50;5063445;28;19939;-67
2021/05/23 04:28:59;;;;;;;;;;;;;;;8.78;82.59;98349.94;5063360;28;20080;-67
2021/05/23 04:31:24;;;;;;;;;;;;;;;8.89;82.69;98357.63;5066548;28;19967;-67
2021/05/23 04:33:49;;;;;;;;;;;;;;;8.87;82.38;98356.78;5066475;28;20095;-67
2021/05/23 04:36:14;;;;;;;;;;;;;;;8.95;82.04;98361.00;5066442;28;19904;-67
2021/05/23 04:38:40;;;;;;;;;;;;;;;8.96;82.55;98372.38;5066308;28;19915;-67
2021/05/23 04:41:05;;;;;;;;;;;;;;;8.93;82.41;98377.69;5051556;28;19912;-67
2021/05/23 04:43:30;;;;;;;;;;;;;;;9.05;82.33;98382.72;5046335;28;19908;-67
2021/05/23 04:45:55;;;;;;;;;;;;;;;9.03;82.00;98379.25;5048865;28;19905;-67
2021/05/23 04:48:21;;;;;;;;;;;;;;;9.02;82.27;98377.53;5062780;28;20155;-67
2021/05/23 04:50:46;;;;;;;;;;;;;;;9.05;81.35;98382.72;5061398;28;19904;-67
2021/05/23 04:53:12;;;;;;;;;;;;;;;9.15;81.63;98384.31;5063742;28;20196;-67
2021/05/23 04:55:37;;;;;;;;;;;;;;;9.14;82.13;98387.81;5054977;28;20212;-67
2021/05/23 04:58:03;;;;;;;;;;;;;;;9.28;81.54;98397.19;5049878;28;19979;-67
2021/05/23 05:00:29;;;;;;;;;;;;;;;9.18;81.02;98400.00;5060580;28;19904;-67
2021/05/23 05:02:54;;;;;;;;;;;;;;;9.21;82.11;98406.03;5052985;28;19947;-67
2021/05/23 05:05:19;;;;;;;;;;;;;;;9.29;81.65;98403.28;5047599;28;19911;-67
2021/05/23 05:07:45;;;;;;;;;;;;;;;9.38;81.29;98411.00;5048265;28;19951;-65
2021/05/23 05:10:11;;;;;;;;;;;;;;;9.33;81.50;98415.50;5048194;28;19985;-65
2021/05/23 05:12:36;;;;;;;;;;;;;;;9.31;81.58;98417.28;5048154;28;20137;-65
2021/05/23 05:15:02;;;;;;;;;;;;;;;9.34;82.39;98422.47;5046760;28;19912;-65
2021/05/23 05:17:27;;;;;;;;;;;;;;;9.40;82.56;98417.09;5048564;28;19905;-65
2021/05/23 05:19:52;;;;;;;;;;;;;;;9.48;81.71;98417.81;5051281;28;19904;-64
2021/05/23 05:22:17;;;;;;;;;;;;;;;9.51;81.81;98412.50;5061236;28;20214;-64
2021/05/23 05:24:43;;;;;;;;;;;;;;;9.48;81.36;98420.44;5063966;28;20285;-65
2021/05/23 05:27:08;;;;;;;;;;;;;;;9.60;82.37;98425.47;5063872;28;19904;-65
2021/05/23 05:29:34;;;;;;;;;;;;;;;9.61;81.50;98427.19;5059291;28;20104;-64
2021/05/23 05:32:01;;;;;;;;;;;;;;;9.61;81.29;98428.06;5064795;28;19905;-64
2021/05/23 05:34:26;;;;;;;;;;;;;;;9.69;81.77;98422.69;5052361;28;19979;-64
2021/05/23 05:36:52;;;;;;;;;;;;;;;9.68;81.87;98431.47;5047673;28;20226;-64
2021/05/23 05:39:17;;;;;;;;;;;;;;;9.82;82.07;98424.19;5047671;28;19917;-65
2021/05/23 05:41:43;;;;;;;;;;;;;;;9.85;81.56;98424.13;5049023;28;19908;-65
2021/05/23 05:44:08;;;;;;;;;;;;;;;9.90;81.58;98427.53;5053383;28;19904;-65
2021/05/23 05:46:33;;;;;;;;;;;;;;;9.95;80.67;98430.91;5063762;28;19904;-65
2021/05/23 05:48:59;;;;;;;;;;;;;;;10.05;81.92;98429.81;5062558;28;19940;-64
2021/05/23 05:51:24;;;;;;;;;;;;;;;10.07;80.80;98428.97;5061822;28;19905;-64
2021/05/23 05:53:49;;;;;;;;;;;;;;;10.18;80.55;98431.34;5060287;28;20283;-65
2021/05/23 05:56:15;;;;;;;;;;;;;;;10.15;79.54;98431.41;5061948;28;19968;-65
2021/05/23 05:58:40;;;;;;;;;;;;;;;10.03;80.47;98447.41;5064837;28;19976;-65
2021/05/23 06:01:05;;;;;;;;;;;;;;;10.10;81.02;98443.78;5061648;28;19905;-65
2021/05/23 06:03:31;;;;;;;;;;;;;;;10.11;81.32;98443.75;5059949;28;19908;-65
2021/05/23 06:05:57;;;;;;;;;;;;;;;10.21;80.29;98449.69;5064672;28;19958;-65
2021/05/23 06:08:22;;;;;;;;;;;;;;;10.29;80.51;98455.66;5063097;28;19909;-65
2021/05/23 06:10:48;;;;;;;;;;;;;;;10.22;80.73;98454.91;5060221;28;19912;-65
2021/05/23 06:13:13;;;;;;;;;;;;;;;10.38;80.83;98456.31;5061464;28;20243;-65
2021/05/23 06:15:39;;;;;;;;;;;;;;;10.41;80.29;98445.75;5061176;28;19913;-65
2021/05/23 06:18:04;;;;;;;;;;;;;;;10.56;79.24;98452.44;5063014;28;19909;-65
2021/05/23 06:20:29;;;;;;;;;;;;;;;10.55;78.69;98459.47;5062930;28;19911;-64
2021/05/23 06:22:54;;;;;;;;;;;;;;;10.53;79.10;98460.38;5062889;28;19971;-64
2021/05/23 06:25:20;;;;;;;;;;;;;;;10.61;79.18;98455.84;5053392;28;20000;-64
2021/05/23 06:27:45;;;;;;;;;;;;;;;10.68;79.40;98465.31;5045676;28;19912;-64
2021/05/23 06:30:10;;;;;;;;;;;;;;;10.85;80.52;98468.41;5047255;28;19905;-64
2021/05/23 06:32:36;;;;;;;;;;;;;;;11.03;79.81;98468.00;5046715;28;19905;-64
2021/05/23 06:35:02;;;;;;;;;;;;;;;11.10;77.45;98466.94;5047474;28;19966;-64
2021/05/23 06:37:27;;;;;;;;;;;;;;;11.10;77.88;98474.00;5046892;28;19912;-64
2021/05/23 06:39:52;;;;;;;;;;;;;;;11.17;76.85;98476.44;5045465;28;19912;-65
2021/05/23 06:42:18;;;;;;;;;;;;;;;11.12;77.10;98478.31;5046045;28;19967;-65
2021/05/23 06:44:44;;;;;;;;;;;;;;;11.12;77.90;98486.22;5044454;28;19912;-65
2021/05/23 06:47:09;;;;;;;;;;;;;;;11.29;76.69;98485.84;5057015;28;19927;-65
2021/05/23 06:49:35;;;;;;;;;;;;;;;11.08;77.56;98492.47;5049287;28;19955;-65
2021/05/23 06:52:00;;;;;;;;;;;;;;;11.17;76.18;98494.03;5048075;28;19912;-65
2021/05/23 06:54:26;;;;;;;;;;;;;;;11.06;77.35;98494.28;5047094;28;20103;-65
2021/05/23 06:56:51;;;;;;;;;;;;;;;11.10;78.08;98500.34;5055514;28;20192;-64
2021/05/23 06:59:16;;;;;;;;;;;;;;;11.07;77.68;98496.00;5055300;28;19937;-65
2021/05/23 07:01:42;;;;;;;;;;;;;;;11.12;77.69;98499.41;5047556;28;19909;-65
2021/05/23 07:04:07;;;;;;;;;;;;;;;11.08;77.69;98508.28;5055151;28;19948;-65
2021/05/23 07:06:32;;;;;;;;;;;;;;;11.01;76.53;98506.66;5055348;28;19916;-65
2021/05/23 07:08:58;;;;;;;;;;;;;;;10.98;78.54;98512.00;5057581;28;19905;-65
2021/05/23 07:11:23;;;;;;;;;;;;;;;10.97;77.13;98505.00;5049590;28;20073;-65
2021/05/23 07:13:48;;;;;;;;;;;;;;;11.05;76.80;98515.38;5046232;28;19921;-65
2021/05/23 07:16:14;;;;;;;;;;;;;;;10.97;77.02;98526.09;5051897;28;19953;-64
2021/05/23 07:18:39;;;;;;;;;;;;;;;10.94;77.69;98515.63;5066946;28;19932;-65
2021/05/23 07:21:04;;;;;;;;;;;;;;;11.02;76.85;98513.69;5051526;28;19904;-65
2021/05/23 07:25:52;;;;;;;6.78;0.98;;;;;;;11.17;76.51;98518.56;5073826;27;20391;-67
2021/05/23 07:28:17;;;;;;;2.88;0.85;;;;;;;11.21;76.79;98517.63;5078083;28;20044;-67
2021/05/23 07:30:43;;;;;;;3.83;0.80;;;;;;;11.20;76.27;98515.88;5079396;28;20368;-67
2021/05/23 07:33:09;;;;;;;1.95;0.73;;;;;;;11.25;75.87;98521.03;5076643;28;20266;-67
2021/05/23 07:35:34;;;;;;;1.88;0.70;;;;;;;11.38;76.59;98523.34;5076677;28;20083;-67
2021/05/23 07:38:00;;;;;;;7.07;1.05;;;;;;;11.43;75.40;98526.75;5072897;28;20334;-67
2021/05/23 07:40:25;;;;;;;2.35;0.70;;;;;;;11.48;76.42;98530.13;5078664;28;20048;-67
2021/05/23 07:42:51;;;;;;;2.03;0.60;;;;;;;11.61;76.88;98542.09;5079080;28;20082;-67
2021/05/23 07:45:17;;;;;;;2.92;0.70;;;;;;;11.69;75.55;98540.19;5079909;28;20308;-67
2021/05/23 07:47:42;;;;;;;2.83;0.90;;;;;;;11.71;74.55;98533.06;5077143;28;20055;-67
2021/05/23 07:50:09;;;;;;;1.52;0.70;;;;;;;11.74;74.20;98540.91;5078954;28;20013;-67
2021/05/23 07:52:35;;;;;;;3.75;0.68;;;;;;;11.85;74.59;98536.25;5078176;28;20048;-67
2021/05/23 07:55:00;;;;;;;3.53;0.90;;;;;;;11.94;72.97;98540.41;5077810;28;20025;-67
2021/05/23 07:57:27;;;;;;;3.42;0.80;;;;;;;11.89;72.65;98537.88;5075752;28;20090;-67
2021/05/23 07:59:52;;;;;;;1.17;0.70;;;;;;;11.91;73.03;98544.00;5075005;28;20024;-67
2021/05/23 08:02:18;;;;;;;3.03;1.08;;;;;;;11.65;74.39;98543.81;5079529;28;20100;-67
2021/05/23 08:04:43;;;;;;;1.85;0.90;;;;;;;11.92;74.14;98542.22;5073132;28;20016;-67
2021/05/23 08:07:09;;;;;;;1.73;0.80;;;;;;;11.93;73.57;98544.81;5066336;28;20051;-67
2021/05/23 08:09:35;;;;;;;4.15;1.10;;;;;;;12.04;74.31;98547.16;5068576;28;20048;-67
2021/05/23 08:12:00;;;;;;;3.78;1.15;;;;;;;12.53;74.37;98548.41;5073594;28;20021;-68
2021/05/23 08:14:25;;;;;;;4.30;0.80;;;;;;;13.09;71.95;98548.56;5075676;28;20020;-67
2021/05/23 08:16:51;;;;;;;1.95;0.88;;;;;;;13.77;71.59;98555.16;5076346;28;20020;-67
2021/05/23 08:19:16;;;;;;;2.28;0.70;;;;;;;14.02;68.86;98550.78;5079528;28;20024;-66
2021/05/23 08:21:42;;;;;;;1.42;0.65;;;;;;;14.51;68.31;98551.66;5071700;28;20045;-64
2021/05/23 08:24:09;;;;;;;4.22;1.05;;;;;;;14.64;67.96;98544.13;5072981;28;20126;-64
2021/05/23 08:26:35;;;;;;;3.90;0.70;;;;;;;14.33;66.18;98551.47;5066783;28;20028;-64
2021/05/23 08:29:02;;;;;;;2.22;0.60;;;;;;;14.38;65.86;98554.81;5060194;28;20124;-64
2021/05/23 08:31:27;;;;;;;2.80;0.80;;;;;;;14.16;65.63;98551.16;5060111;28;20339;-64
2021/05/23 08:33:54;;;;;;;1.92;0.52;;;;;;;14.53;64.36;98544.50;5060321;28;20013;-64
2021/05/23 08:36:20;;;;;;;1.52;0.85;;;;;;;15.21;65.75;98551.66;5061181;28;20021;-64
2021/05/23 08:38:45;;;;;;;2.05;1.10;;;;;;;15.87;63.78;98543.66;5058851;28;20025;-64
2021/05/23 08:41:14;;;;;;;3.50;0.73;;;;;;;15.98;60.30;98544.09;5060436;28;20241;-64
2021/05/23 08:43:40;;;;;;;1.45;0.63;;;;;;;15.89;61.85;98550.66;5061723;28;20353;-64
2021/05/23 08:46:05;;;;;;;3.38;0.80;;;;;;;15.79;62.26;98543.97;5061017;28;20021;-64
2021/05/23 08:48:31;;;;;;;4.32;0.70;;;;;;;15.24;61.73;98549.75;5061432;28;20021;-64
2021/05/23 08:50:56;;;;;;;3.92;0.80;;;;;;;16.39;59.58;98549.31;5059864;28;20051;-64
2021/05/23 08:53:22;;;;;;;1.17;0.63;;;;;;;17.80;57.19;98549.78;5060024;28;20024;-64
2021/05/23 08:55:47;;;;;;;3.97;0.70;;;;;;;18.01;56.55;98553.19;5060029;28;20028;-64
2021/05/23 08:58:15;;;;;;;5.38;1.00;;;;;;;17.40;55.60;98551.78;5058181;28;20092;-64
2021/05/23 09:00:40;;;;;;;2.22;0.68;;;;;;;16.65;56.45;98549.06;5057913;28;20185;-64
2021/05/23 09:03:15;;;;;;;2.92;0.98;;;;;;;16.52;56.80;98547.03;5060101;28;20024;-64
2021/05/23 09:05:56;;;;;;;4.28;0.88;;;;;;;16.26;58.88;98545.47;5049615;28;20037;-64
2021/05/23 09:08:25;;;;;;;6.65;1.00;;;;;;;16.00;60.66;98547.50;5050862;28;20070;-64
2021/05/23 09:10:53;;;;;;;3.85;0.80;;;;;;;15.77;61.47;98556.47;5050747;28;20201;-64
2021/05/23 09:13:29;;;;;;;9.23;1.17;;;;;;;15.00;64.36;98571.91;5054112;28;20044;-64
2021/05/23 09:16:15;;;;;;;2.42;0.80;;;;;;;14.38;64.50;98582.16;5051875;28;20033;-64
2021/05/23 09:18:49;;;;;;;3.08;0.70;;;;;;;13.87;66.83;98580.38;5050916;28;20352;-64
2021/05/23 09:21:18;;;;;;;1.48;0.60;;;;;;;13.56;68.44;98579.66;5049458;28;20336;-64
2021/05/23 09:23:48;;;;;;;1.95;0.82;;;;;;;13.71;70.53;98579.16;5050250;28;20040;-64
2021/05/23 09:26:26;;;;;;;3.33;0.75;;;;;;;14.12;70.89;98584.81;5052327;28;20021;-64
2021/05/23 09:28:53;;;;;;;6.70;0.90;;;;;;;14.66;70.83;98582.03;5049292;28;20052;-64
2021/05/23 09:31:24;;;;;;;2.83;0.63;;;;;;;14.59;71.01;98575.22;5045729;28;20029;-64
2021/05/23 09:33:52;;;;;;;2.85;0.60;;;;;;;14.06;70.38;98584.16;5045771;28;20025;-64
2021/05/23 09:36:19;;;;;;;3.90;1.00;;;;;;;13.93;71.31;98577.53;5045596;28;20033;-64
2021/05/23 09:39:01;;;;;;;4.25;0.90;;;;;;;13.92;70.74;98583.75;5045555;28;20029;-64
2021/05/23 09:41:30;;;;;;;2.25;0.85;;;;;;;13.52;72.16;98576.25;5045443;28;20108;-64
2021/05/23 09:44:17;;;;;;;3.03;0.93;;;;;;;13.72;71.99;98583.53;5045397;28;20049;-64
2021/05/23 09:47:09;;;;;;;3.70;1.30;;;;;;;13.77;70.14;98581.59;5057627;28;20024;-64
2021/05/23 09:49:42;;;;;;;3.95;1.20;;;;;;;14.49;72.81;98573.84;5057872;28;20204;-65
2021/05/23 09:52:11;;;;;;;2.97;1.15;;;;;;;15.29;67.93;98574.31;5059513;28;20032;-64
2021/05/23 09:54:47;;;;;;;2.35;1.20;;;;;;;15.11;68.77;98575.00;5059172;28;20016;-64
2021/05/23 09:57:20;;;;;;;4.75;1.40;;;;;;;16.60;66.94;98569.69;5054315;28;20021;-64
2021/05/23 09:59:57;;;;;;;3.88;1.33;;;;;;;15.96;64.84;98568.03;5053513;28;20021;-64
2021/05/23 10:02:22;;;;;;;4.78;1.20;;;;;;;15.38;66.44;98584.59;5048687;28;20021;-64
2021/05/23 10:04:48;;;;;;;4.00;1.38;;;;;;;14.97;65.44;98590.59;5049664;28;20216;-64
2021/05/23 10:07:13;;;;;;;1.88;1.20;;;;;;;14.84;67.13;98602.56;5051115;28;20024;-65
2021/05/23 10:09:40;;;;;;;3.03;1.13;;;;;;;14.52;68.85;98605.47;5058420;28;20213;-65
2021/05/23 10:12:08;;;;;;;3.83;1.00;;;;;;;14.35;66.68;98594.63;5048647;28;20048;-64
2021/05/23 10:14:35;;;;;;;2.22;0.70;;;;;;;14.34;69.13;98606.16;5058674;28;20013;-64
2021/05/23 10:17:01;;;;;;;0.95;0.60;;;;;;;14.99;67.98;98596.66;5059919;28;20224;-64
2021/05/23 10:19:31;;;;;;;3.20;1.00;;;;;;;16.88;66.69;98596.75;5057121;28;20040;-65
2021/05/23 10:21:59;;;;;;;2.45;1.13;;;;;;;17.54;63.29;98594.59;5059818;28;20239;-65
2021/05/23 10:24:37;;;;;;;2.72;0.90;;;;;;;18.37;62.66;98593.97;5060788;28;20044;-65
2021/05/23 10:27:09;;;;;;;2.78;0.82;;;;;;;18.75;59.54;98590.19;5050098;28;20025;-65
2021/05/23 10:29:38;;;;;;;2.50;0.73;;;;;;;17.92;60.42;98581.16;5050272;28;20021;-65
2021/05/23 10:32:10;;;;;;;4.22;0.85;;;;;;;17.13;63.46;98602.69;5054481;28;20044;-64
2021/05/23 10:34:42;;;;;;;2.28;0.52;;;;;;;15.93;56.89;98621.25;5055347;28;20033;-64
2021/05/23 10:37:08;;;;;;;;;;;;;;;15.04;59.83;98584.97;5049153;28;20025;-64
2021/05/23 10:39:39;;;;;;;1.15;0.40;;;;;;;15.08;60.59;98588.38;5051933;28;19912;-64
2021/05/23 10:42:05;;;;;;;0.67;0.20;;;;;;;15.60;60.74;98593.41;5049667;28;20081;-64
2021/05/23 10:44:42;;;;;;;0.90;0.30;;;;;;;15.31;60.92;98601.59;5049759;28;20028;-64
2021/05/23 10:47:31;;;;;;;0.50;0.45;;;;;;;15.11;62.98;98590.91;5047790;28;20021;-64
2021/05/23 10:50:06;;;;;;;2.50;0.50;;;;;;;15.09;63.49;98584.78;5050072;28;20033;-64
2021/05/23 10:52:33;;;;;;;4.22;0.75;;;;;;;15.86;62.92;98582.63;5056039;28;20040;-64
2021/05/23 10:55:16;;;;;;;2.55;0.60;;;;;;;16.77;62.16;98576.91;5056058;28;20020;-64
2021/05/23 10:57:46;;;;;;;3.75;0.50;;;;;;;17.30;61.52;98574.44;5057214;28;20044;-64
2021/05/23 11:00:24;;;;;;;2.22;0.60;;;;;;;17.70;61.34;98585.81;5052190;28;20096;-64
2021/05/23 11:02:51;;;;;;;1.75;0.47;;;;;;;18.11;64.56;98581.09;5048676;28;20021;-64
2021/05/23 11:05:27;;;;;;;2.67;0.50;;;;;;;18.43;61.12;98583.00;5047588;28;20299;-64
2021/05/23 11:08:04;;;;;;;1.23;0.45;;;;;;;18.36;58.02;98578.91;5059109;28;20045;-64
2021/05/23 11:10:47;;;;;;;2.17;0.57;;;;;;;18.18;60.20;98593.16;5059433;28;20023;-64
2021/05/23 11:13:15;;;;;;;2.47;0.40;;;;;;;17.35;60.10;98583.06;5047690;28;20267;-64
2021/05/23 11:15:48;;;;;;;1.20;0.40;;;;;;;17.23;58.84;98590.69;5049677;28;20016;-64
2021/05/23 11:18:22;;;;;;;1.45;0.38;;;;;;;17.05;58.73;98591.53;5057125;28;20055;-64
2021/05/23 11:21:02;;;;;;;0.98;0.40;;;;;;;17.15;58.55;98582.19;5049450;28;20193;-64
2021/05/23 11:23:29;;;;;;;2.55;0.50;;;;;;;17.20;59.02;98585.50;5047136;28;20347;-64
2021/05/23 11:26:10;;;;;;;0.93;0.40;;;;;;;17.71;57.71;98597.28;5047540;28;20328;-64
2021/05/23 11:28:36;;;;;;;3.28;0.50;;;;;;;17.66;57.36;98594.88;5047536;28;20013;-64
2021/05/23 11:31:01;;;;;;;0.90;0.38;;;;;;;18.11;55.24;98597.06;5048407;28;20347;-64
2021/05/23 11:33:26;;;;;;;1.25;0.47;;;;;;;18.40;55.28;98600.03;5047231;28;20021;-64
2021/05/23 11:35:53;;;;;;;2.95;0.30;;;;;;;18.28;55.31;98589.06;5048305;28;20021;-64
2021/05/23 11:38:20;;;;;;;2.88;0.47;;;;;;;18.28;53.13;98589.06;5049469;28;20310;-64
2021/05/23 11:40:46;;;;;;;2.38;0.55;;;;;;;18.17;55.69;98588.78;5048273;28;20028;-64
2021/05/23 11:43:20;;;;;;;2.03;0.70;;;;;;;18.01;54.77;98602.00;5047099;28;20024;-64
2021/05/23 11:45:51;;;;;;;3.72;0.40;;;;;;;17.85;54.20;98594.84;5055395;28;20041;-64
2021/05/23 11:48:17;;;;;;;1.05;0.30;;;;;;;17.96;54.17;98604.03;5048256;28;20028;-64
2021/05/23 11:50:42;;;;;;;1.98;0.50;;;;;;;17.27;52.88;98595.88;5048205;28;20025;-64
2021/05/23 11:53:08;;;;;;;2.17;0.50;;;;;;;16.84;56.05;98596.97;5049311;28;20032;-64
2021/05/23 11:55:33;;;;;;;1.52;0.38;;;;;;;16.75;56.78;98608.00;5049306;28;20081;-64
2021/05/23 11:58:09;;;;;;;2.05;0.40;;;;;;;16.74;58.70;98607.13;5048795;28;20013;-64
2021/05/23 12:00:35;;;;;;;1.02;0.40;;;;;;;16.79;54.06;98594.50;5049532;28;20013;-64
2021/05/23 12:03:01;;;;;;;1.75;0.43;;;;;;;16.72;54.39;98603.69;5049184;28;20017;-64
2021/05/23 12:05:41;;;;;;;1.40;0.45;;;;;;;16.85;54.95;98582.72;5051151;28;20028;-64
2021/05/23 12:08:21;;;;;;;2.33;0.40;;;;;;;16.90;56.08;98580.72;5054496;28;20024;-65
2021/05/23 12:11:02;;;;;;;0.50;0.40;;;;;;;16.89;56.47;98584.31;5057285;28;20025;-64
2021/05/23 12:13:44;;;;;;;1.17;0.40;;;;;;;16.85;50.75;98570.31;5058279;28;20023;-65
2021/05/23 12:16:18;;;;;;;0.47;0.30;;;;;;;16.79;55.40;98572.38;5058790;28;20036;-64
2021/05/23 12:18:46;;;;;;;2.40;0.63;;;;;;;16.75;54.70;98573.44;5059083;28;20251;-65
2021/05/23 12:21:24;;;;;;;3.72;0.70;;;;;;;16.57;55.84;98571.59;5058548;28;20017;-65
2021/05/23 12:23:54;;;;;;;3.17;0.50;;;;;;;16.57;54.70;98572.47;5050937;28;20052;-65